Terminal Aerodrome Forecast
Issued by NWS Wilmington, OH

Current Version | Previous Version | Graphics & Text | Print | Product List | Glossary On
Versions: 1 2 3 4 5 6 7 8 9 10 11 12 13 14 15 16 17 18 19 20 21 22 23
000
FTUS41 KILN 241400 AAA
TAFCMH
TAF AMD
KCMH 241438Z 2415/2512 30007KT P6SM OVC015
     FM241600 26011KT P6SM SCT025 BKN060
     FM241900 26012G20KT P6SM OVC025
     FM242300 26011KT P6SM VCSH SCT015 OVC022
     FM250300 25008KT P6SM SCT025 OVC035
     FM250900 20005KT 5SM BR OVC012=

USA.gov is the U.S. government's official web portal to all federal, state and local government web resources and services.